createdAt,value
2018-09-15T00:00:57.729Z,100909.98
2018-09-15T00:03:26.305Z,100904.23
2018-09-15T00:05:54.592Z,100903.50
2018-09-15T00:08:22.623Z,100899.53
2018-09-15T00:10:50.704Z,100900.92
2018-09-15T00:13:19.717Z,100898.03
2018-09-15T00:15:47.796Z,100898.80
2018-09-15T00:18:17.212Z,100908.40
2018-09-15T00:20:45.276Z,100907.59
2018-09-15T00:23:13.396Z,100905.02
2018-09-15T00:25:42.229Z,100903.84
2018-09-15T00:28:11.124Z,100909.17
2018-09-15T00:30:39.290Z,100906.85
2018-09-15T00:33:07.381Z,100905.66
2018-09-15T00:35:41.942Z,100904.27
2018-09-15T00:38:09.996Z,100899.91
2018-09-15T00:40:38.063Z,100897.14
2018-09-15T00:43:06.138Z,100900.06
2018-09-15T00:45:34.183Z,100897.41
2018-09-15T00:48:02.245Z,100901.73
2018-09-15T00:50:30.306Z,100908.59
2018-09-15T00:52:58.356Z,100911.52
2018-09-15T00:55:26.540Z,100916.57
2018-09-15T00:57:54.593Z,100918.84
2018-09-15T01:00:22.667Z,100914.40
2018-09-15T01:02:50.712Z,100916.06
2018-09-15T01:05:18.760Z,100914.24
2018-09-15T01:07:46.824Z,100913.81
2018-09-15T01:10:14.889Z,100910.81
2018-09-15T01:12:42.936Z,100910.81
2018-09-15T01:15:11.070Z,100912.43
2018-09-15T01:17:39.121Z,100912.05
2018-09-15T01:20:07.198Z,100910.16
2018-09-15T01:22:35.240Z,100905.04
2018-09-15T01:25:03.311Z,100912.05
2018-09-15T01:27:31.357Z,100907.16
2018-09-15T01:29:59.405Z,100910.02
2018-09-15T01:32:28.247Z,100908.47
2018-09-15T01:34:56.826Z,100907.74
2018-09-15T01:37:25.307Z,100914.91
2018-09-15T01:39:53.397Z,100913.72
2018-09-15T01:42:21.461Z,100908.55
2018-09-15T01:44:49.541Z,100909.36
2018-09-15T01:47:17.588Z,100907.97
2018-09-15T01:49:45.653Z,100902.42
2018-09-15T01:52:13.720Z,100907.31
2018-09-15T01:54:41.775Z,100910.67
2018-09-15T01:57:09.845Z,100910.83
2018-09-15T01:59:41.064Z,100913.06
2018-09-15T02:02:09.168Z,100907.39
2018-09-15T02:04:37.207Z,100907.69
2018-09-15T02:07:05.280Z,100906.38
2018-09-15T02:09:33.336Z,100908.83
2018-09-15T02:12:01.395Z,100899.77
2018-09-15T02:14:29.460Z,100901.69
2018-09-15T02:16:57.522Z,100904.38
2018-09-15T02:19:25.584Z,100911.00
2018-09-15T02:21:53.656Z,100906.55
2018-09-15T02:24:21.724Z,100906.27
2018-09-15T02:26:49.784Z,100905.95
2018-09-15T02:29:17.857Z,100903.09
2018-09-15T02:31:45.977Z,100905.58
2018-09-15T02:34:14.048Z,100905.84
2018-09-15T02:36:42.099Z,100904.94
2018-09-15T02:39:10.700Z,100911.78
2018-09-15T02:41:38.754Z,100909.88
2018-09-15T02:44:06.992Z,100907.39
2018-09-15T02:46:35.045Z,100904.67
2018-09-15T02:49:03.112Z,100908.88
2018-09-15T02:51:31.184Z,100903.01
2018-09-15T02:53:59.256Z,100913.42
2018-09-15T02:56:27.306Z,100912.69
2018-09-15T02:58:55.368Z,100914.78
2018-09-15T03:01:23.426Z,100914.45
2018-09-15T03:03:51.484Z,100924.63
2018-09-15T03:06:19.540Z,100920.98
2018-09-15T03:08:47.595Z,100916.59
2018-09-15T03:11:15.648Z,100916.97
2018-09-15T03:13:43.699Z,100917.68
2018-09-15T03:16:11.744Z,100920.79
2018-09-15T03:18:39.800Z,100921.37
2018-09-15T03:21:09.857Z,100917.01
2018-09-15T03:23:37.908Z,100920.36
2018-09-15T03:26:05.960Z,100921.06
2018-09-15T03:28:34.021Z,100927.71
2018-09-15T03:31:02.093Z,100925.75
2018-09-15T03:33:30.137Z,100928.19
2018-09-15T03:35:58.192Z,100926.56
2018-09-15T03:38:26.236Z,100928.52
2018-09-15T03:40:54.318Z,100929.00
2018-09-15T03:43:22.370Z,100932.00
2018-09-15T03:45:50.639Z,100927.84
2018-09-15T03:48:18.697Z,100925.80
2018-09-15T03:50:46.756Z,100929.03
2018-09-15T03:53:14.817Z,100934.57
2018-09-15T03:55:42.888Z,100930.92
2018-09-15T03:58:11.012Z,100936.59
2018-09-15T04:00:39.096Z,100940.07
2018-09-15T04:03:07.164Z,100944.36
2018-09-15T04:05:35.251Z,100948.98
2018-09-15T04:08:03.395Z,100938.37
2018-09-15T04:10:31.481Z,100944.62
2018-09-15T04:12:59.557Z,100946.95
2018-09-15T04:15:27.697Z,100945.70
2018-09-15T04:17:55.804Z,100956.66
2018-09-15T04:20:23.888Z,100957.59
2018-09-15T04:22:51.968Z,100958.06
2018-09-15T04:25:20.052Z,100960.16
2018-09-15T04:27:48.144Z,100965.58
2018-09-15T04:30:16.256Z,100966.85
2018-09-15T04:32:44.372Z,100962.80
2018-09-15T04:35:12.464Z,100967.89
2018-09-15T04:37:40.543Z,100966.63
2018-09-15T04:40:08.636Z,100967.44
2018-09-15T04:42:36.728Z,100970.21
2018-09-15T04:45:04.855Z,100972.98
2018-09-15T04:47:33.076Z,100972.61
2018-09-15T04:50:01.159Z,100966.06
2018-09-15T04:52:29.251Z,100975.92
2018-09-15T04:54:57.333Z,100976.06
2018-09-15T04:57:25.445Z,100972.60
2018-09-15T04:59:53.559Z,100973.52
2018-09-15T05:02:21.674Z,100980.06
2018-09-15T05:04:49.745Z,100984.09
2018-09-15T05:07:17.845Z,100991.92
2018-09-15T05:09:45.927Z,100991.45
2018-09-15T05:12:14.045Z,100992.91
2018-09-15T05:14:42.180Z,100998.12
2018-09-15T05:17:10.328Z,100999.03
2018-09-15T05:19:38.435Z,101000.86
2018-09-15T05:22:06.644Z,101008.45
2018-09-15T05:24:34.744Z,101010.96
2018-09-15T05:27:02.843Z,101007.72
2018-09-15T05:29:30.957Z,100996.86
2018-09-15T05:31:59.139Z,101006.52
2018-09-15T05:34:28.558Z,101007.20
2018-09-15T05:36:56.655Z,101003.28
2018-09-15T05:39:24.808Z,101001.42
2018-09-15T05:41:53.024Z,101014.55
2018-09-15T05:44:21.325Z,101012.09
2018-09-15T05:46:49.429Z,101014.59
2018-09-15T05:49:17.505Z,101020.47
2018-09-15T05:51:45.574Z,101020.00
2018-09-15T05:54:13.645Z,101016.14
2018-09-15T05:56:41.754Z,101020.40
2018-09-15T05:59:09.948Z,101020.27
2018-09-15T06:01:38.103Z,101019.31
2018-09-15T06:04:06.164Z,101021.74
2018-09-15T06:06:34.254Z,101028.88
2018-09-15T06:09:02.385Z,101031.64
2018-09-15T06:11:30.502Z,101025.77
2018-09-15T06:13:58.627Z,101026.20
2018-09-15T06:16:26.725Z,101029.64
2018-09-15T06:18:54.895Z,101021.66
2018-09-15T06:21:22.994Z,101025.67
2018-09-15T06:23:51.096Z,101026.92
2018-09-15T06:26:19.221Z,101018.71
2018-09-15T06:28:47.548Z,101022.28
2018-09-15T06:31:15.703Z,101022.70
2018-09-15T06:33:43.789Z,101022.31
2018-09-15T06:36:11.917Z,101020.58
2018-09-15T06:38:39.935Z,101022.35
2018-09-15T06:41:08.000Z,101023.81
2018-09-15T06:43:36.100Z,101020.07
2018-09-15T06:46:04.252Z,101024.83
2018-09-15T06:48:32.368Z,101030.39
2018-09-15T06:51:00.459Z,101026.70
2018-09-15T06:53:28.724Z,101041.67
2018-09-15T06:55:56.820Z,101043.66
2018-09-15T06:58:24.902Z,101056.72
2018-09-15T07:00:53.036Z,101050.50
2018-09-15T07:03:21.158Z,101054.63
2018-09-15T07:05:49.906Z,101060.09
2018-09-15T07:08:18.106Z,101060.84
2018-09-15T07:10:50.682Z,101069.17
2018-09-15T07:13:20.048Z,101069.92
2018-09-15T07:15:49.665Z,101087.52
2018-09-15T07:18:22.468Z,101083.62
2018-09-15T07:20:50.582Z,101094.45
2018-09-15T07:23:22.385Z,101089.69
2018-09-15T07:25:50.484Z,101088.20
2018-09-15T07:28:21.532Z,101084.06
2018-09-15T07:30:49.669Z,101092.58
2018-09-15T07:33:17.889Z,101098.51
2018-09-15T07:35:47.153Z,101097.65
2018-09-15T07:38:18.169Z,101099.80
2018-09-15T07:40:46.303Z,101094.08
2018-09-15T07:43:15.663Z,101088.22
2018-09-15T07:45:43.748Z,101100.34
2018-09-15T07:48:14.086Z,101099.41
2018-09-15T07:50:42.141Z,101098.78
2018-09-15T07:53:10.305Z,101100.57
2018-09-15T07:55:38.552Z,101109.87
2018-09-15T07:58:06.745Z,101113.83
2018-09-15T08:00:34.984Z,101100.61
2018-09-15T08:03:03.618Z,101104.83
2018-09-15T08:05:31.806Z,101111.13
2018-09-15T08:07:59.898Z,101105.66
2018-09-15T08:10:27.992Z,101107.73
2018-09-15T08:12:56.121Z,101101.97
2018-09-15T08:15:24.204Z,101097.10
2018-09-15T08:17:52.441Z,101099.98
2018-09-15T08:20:20.783Z,101110.81
2018-09-15T08:22:49.076Z,101105.33
2018-09-15T08:25:22.193Z,101117.27
2018-09-15T08:27:50.255Z,101103.11
2018-09-15T08:30:18.521Z,101114.06
2018-09-15T08:32:46.694Z,101104.88
2018-09-15T08:35:14.773Z,101104.81
2018-09-15T08:37:42.889Z,101112.45
2018-09-15T08:40:12.072Z,101114.23
2018-09-15T08:42:40.528Z,101055.05
2018-09-15T08:45:08.960Z,101112.78
2018-09-15T08:47:37.101Z,101115.94
2018-09-15T08:50:05.477Z,101122.70
2018-09-15T08:52:33.651Z,101114.26
2018-09-15T08:55:01.765Z,101124.81
2018-09-15T08:57:29.920Z,101126.38
2018-09-15T08:59:58.006Z,101140.90
2018-09-15T09:02:26.221Z,101144.34
2018-09-15T09:04:54.372Z,101139.17
2018-09-15T09:07:22.428Z,101132.28
2018-09-15T09:09:50.591Z,101142.04
2018-09-15T09:12:18.756Z,101127.94
2018-09-15T09:17:35.319Z,101143.28
2018-09-15T09:20:07.470Z,101141.91
2018-09-15T09:22:36.813Z,101138.34
2018-09-15T09:25:07.339Z,101140.56
2018-09-15T09:27:35.507Z,101145.58
2018-09-15T09:30:03.743Z,101132.41
2018-09-15T09:32:35.572Z,101107.82
2018-09-15T09:35:03.701Z,101141.87
2018-09-15T09:37:33.827Z,101142.84
2018-09-15T09:42:41.337Z,101137.63
2018-09-15T09:45:12.557Z,101137.45
2018-09-15T09:50:44.975Z,101142.38
2018-09-15T09:53:17.332Z,101139.75
2018-09-15T09:55:45.581Z,101144.12
2018-09-15T09:58:13.890Z,101137.91
2018-09-15T10:00:49.966Z,101140.70
2018-09-15T10:03:18.234Z,101128.48
2018-09-15T10:05:46.345Z,101134.67
2018-09-15T10:08:14.499Z,101141.09
2018-09-15T10:10:42.708Z,101138.02
2018-09-15T10:13:10.929Z,101152.27
2018-09-15T10:15:39.367Z,101156.27
2018-09-15T10:18:07.510Z,101153.46
2018-09-15T10:20:36.262Z,101159.45
2018-09-15T10:23:04.499Z,101154.06
2018-09-15T10:25:32.641Z,101155.26
2018-09-15T10:28:00.817Z,101144.65
2018-09-15T10:30:28.939Z,101144.25
2018-09-15T10:32:57.039Z,101141.45
2018-09-15T10:35:25.173Z,101144.25
2018-09-15T10:37:53.326Z,101149.47
2018-09-15T10:43:03.767Z,101154.26
2018-09-15T10:45:31.911Z,101153.45
2018-09-15T10:48:00.045Z,101147.26
2018-09-15T10:50:28.154Z,101144.84
2018-09-15T10:52:56.305Z,101146.64
2018-09-15T10:55:24.494Z,101149.04
2018-09-15T10:57:52.632Z,101157.03
2018-09-15T11:00:20.785Z,101157.62
2018-09-15T11:02:48.844Z,101146.42
2018-09-15T11:05:17.418Z,101152.20
2018-09-15T11:07:46.235Z,101154.98
2018-09-15T11:10:14.425Z,101157.80
2018-09-15T11:12:42.547Z,101159.02
2018-09-15T11:15:10.679Z,101173.83
2018-09-15T11:17:38.890Z,101168.81
2018-09-15T11:20:06.959Z,101174.98
2018-09-15T11:22:35.199Z,101156.42
2018-09-15T11:25:03.505Z,101170.20
2018-09-15T11:27:31.695Z,101164.23
2018-09-15T11:29:59.848Z,101168.47
2018-09-15T11:32:28.024Z,101169.06
2018-09-15T11:34:56.195Z,101167.05
2018-09-15T11:37:24.349Z,101168.61
2018-09-15T11:39:52.641Z,101166.59
2018-09-15T11:42:20.869Z,101170.91
2018-09-15T11:44:48.979Z,101170.06
2018-09-15T11:47:17.118Z,101162.34
2018-09-15T11:49:45.356Z,101169.30
2018-09-15T11:52:13.568Z,101167.00
2018-09-15T11:54:41.680Z,101164.70
2018-09-15T11:57:09.817Z,101162.69
2018-09-15T11:59:37.919Z,101161.89
2018-09-15T12:02:06.124Z,101163.23
2018-09-15T12:04:34.231Z,101169.31
2018-09-15T12:07:02.385Z,101166.18
2018-09-15T12:09:30.594Z,101159.91
2018-09-15T12:11:58.724Z,101156.14
2018-09-15T12:14:26.850Z,101161.75
2018-09-15T12:16:55.040Z,101158.16
2018-09-15T12:19:23.393Z,101165.17
2018-09-15T12:21:51.711Z,101163.77
2018-09-15T12:24:19.752Z,101161.52
2018-09-15T12:26:47.884Z,101159.67
2018-09-15T12:29:16.030Z,101162.67
2018-09-15T12:31:44.168Z,101156.88
2018-09-15T12:34:12.382Z,101160.73
2018-09-15T12:36:40.740Z,101162.80
2018-09-15T12:39:09.154Z,101163.00
2018-09-15T12:41:37.280Z,101171.02
2018-09-15T12:44:05.442Z,101176.46
2018-09-15T12:46:33.574Z,101175.72
2018-09-15T12:49:01.709Z,101185.34
2018-09-15T12:51:29.831Z,101183.34
2018-09-15T12:53:58.048Z,101182.95
2018-09-15T12:56:26.519Z,101180.10
2018-09-15T12:58:54.663Z,101179.84
2018-09-15T13:01:22.806Z,101177.79
2018-09-15T13:03:50.934Z,101184.79
2018-09-15T13:06:22.331Z,101177.19
2018-09-15T13:08:57.647Z,101184.66
2018-09-15T13:11:25.829Z,101185.53
2018-09-15T13:13:54.032Z,101182.34
2018-09-15T13:16:22.289Z,101172.20
2018-09-15T13:18:50.432Z,101183.04
2018-09-15T13:21:18.525Z,101190.26
2018-09-15T13:23:47.208Z,101190.28
2018-09-15T13:26:18.296Z,101184.10
2018-09-15T13:28:48.142Z,101185.25
2018-09-15T13:31:18.742Z,101185.05
2018-09-15T13:36:24.464Z,101194.62
2018-09-15T13:38:52.656Z,101187.42
2018-09-15T13:41:21.067Z,101193.41
2018-09-15T13:43:49.235Z,101199.19
2018-09-15T13:46:17.392Z,101187.40
2018-09-15T13:48:45.520Z,101188.03
2018-09-15T13:51:16.948Z,101194.63
2018-09-15T13:53:45.226Z,101189.84
2018-09-15T13:56:13.592Z,101197.47
2018-09-15T13:58:41.762Z,101196.48
2018-09-15T14:01:10.117Z,101203.30
2018-09-15T14:03:39.052Z,101185.47
2018-09-15T14:06:09.353Z,101203.30
2018-09-15T14:08:38.282Z,101195.91
2018-09-15T14:11:06.604Z,101193.66
2018-09-15T14:13:34.696Z,101198.29
2018-09-15T14:16:02.856Z,101191.06
2018-09-15T14:18:31.048Z,101197.27
2018-09-15T14:20:59.314Z,101197.48
2018-09-15T14:23:27.897Z,101202.06
2018-09-15T14:25:56.275Z,101203.06
2018-09-15T14:28:27.867Z,101205.87
2018-09-15T14:30:55.997Z,101204.08
2018-09-15T14:33:24.179Z,101203.05
2018-09-15T14:35:52.347Z,101208.86
2018-09-15T14:38:21.041Z,101210.66
2018-09-15T14:40:49.129Z,101218.86
2018-09-15T14:43:19.077Z,101216.67
2018-09-15T14:45:47.422Z,101217.69
2018-09-15T14:48:15.589Z,101217.28
2018-09-15T14:50:43.764Z,101222.30
2018-09-15T14:53:12.021Z,101215.09
2018-09-15T14:55:40.177Z,101216.70
2018-09-15T14:58:10.514Z,101220.69
2018-09-15T15:00:41.974Z,101208.67
2018-09-15T15:03:11.115Z,101207.47
2018-09-15T15:05:39.356Z,101211.26
2018-09-15T15:08:07.518Z,101213.06
2018-09-15T15:10:35.914Z,101209.27
2018-09-15T15:13:04.067Z,101209.45
2018-09-15T15:15:32.249Z,101221.23
2018-09-15T15:18:00.368Z,101211.81
2018-09-15T15:20:28.476Z,101217.02
2018-09-15T15:22:56.589Z,101210.83
2018-09-15T15:25:24.726Z,101203.03
2018-09-15T15:27:52.808Z,101203.03
2018-09-15T15:30:20.913Z,101209.84
2018-09-15T15:32:49.033Z,101215.25
2018-09-15T15:35:17.279Z,101220.44
2018-09-15T15:37:45.382Z,101217.05
2018-09-15T15:40:13.555Z,101212.64
2018-09-15T15:42:41.877Z,101206.64
2018-09-15T15:45:10.015Z,101212.05
2018-09-15T15:47:39.124Z,101209.06
2018-09-15T15:50:07.272Z,101216.08
2018-09-15T15:52:35.453Z,101205.46
2018-09-15T15:55:03.566Z,101212.66
2018-09-15T15:57:31.632Z,101204.86
2018-09-15T15:59:59.745Z,101188.45
2018-09-15T16:02:28.187Z,101204.24
2018-09-15T16:04:58.288Z,101212.22
2018-09-15T16:07:26.617Z,101215.62
2018-09-15T16:09:54.712Z,101217.41
2018-09-15T16:12:22.962Z,101217.58
2018-09-15T16:14:51.034Z,101211.55
2018-09-15T16:17:19.399Z,101223.29
2018-09-15T16:19:47.574Z,101224.05
2018-09-15T16:22:15.622Z,101228.42
2018-09-15T16:24:43.985Z,101230.02
2018-09-15T16:27:12.332Z,101237.02
2018-09-15T16:29:40.420Z,101232.81
2018-09-15T16:32:08.643Z,101231.23
2018-09-15T16:34:36.755Z,101229.21
2018-09-15T16:37:04.851Z,101231.59
2018-09-15T16:39:33.012Z,101239.19
2018-09-15T16:42:01.097Z,101241.14
2018-09-15T16:44:29.200Z,101236.94
2018-09-15T16:46:57.355Z,101239.46
2018-09-15T16:49:25.484Z,101238.23
2018-09-15T16:51:53.692Z,101240.59
2018-09-15T16:54:21.813Z,101238.98
2018-09-15T16:56:49.962Z,101242.12
2018-09-15T16:59:19.369Z,101242.71
2018-09-15T17:01:48.579Z,101256.44
2018-09-15T17:04:16.651Z,101238.02
2018-09-15T17:06:44.750Z,101238.83
2018-09-15T17:09:12.961Z,101246.34
2018-09-15T17:11:41.136Z,101245.72
2018-09-15T17:14:09.284Z,101247.89
2018-09-15T17:16:37.546Z,101251.09
2018-09-15T17:19:06.102Z,101255.46
2018-09-15T17:21:34.356Z,101250.20
2018-09-15T17:24:02.496Z,101246.98
2018-09-15T17:26:30.677Z,101246.93
2018-09-15T17:28:58.771Z,101248.29
2018-09-15T17:31:26.951Z,101248.84
2018-09-15T17:33:55.032Z,101256.19
2018-09-15T17:36:23.291Z,101252.36
2018-09-15T17:38:51.449Z,101257.49
2018-09-15T17:41:19.566Z,101256.64
2018-09-15T17:43:48.077Z,101256.02
2018-09-15T17:46:16.170Z,101256.56
2018-09-15T17:48:44.248Z,101267.49
2018-09-15T17:51:12.326Z,101266.64
2018-09-15T17:53:40.403Z,101263.22
2018-09-15T17:56:08.568Z,101262.39
2018-09-15T17:58:37.964Z,101270.28
2018-09-15T18:01:06.195Z,101268.87
2018-09-15T18:03:34.372Z,101271.22
2018-09-15T18:06:03.112Z,101271.36
2018-09-15T18:08:31.272Z,101273.15
2018-09-15T18:10:59.439Z,101274.33
2018-09-15T18:13:27.621Z,101278.09
2018-09-15T18:15:55.899Z,101275.30
2018-09-15T18:18:24.128Z,101279.48
2018-09-15T18:20:52.332Z,101282.87
2018-09-15T18:23:20.524Z,101283.45
2018-09-15T18:25:48.694Z,101283.04
2018-09-15T18:28:16.970Z,101293.98
2018-09-15T18:30:45.616Z,101292.17
2018-09-15T18:33:14.042Z,101297.30
2018-09-15T18:35:42.225Z,101298.50
2018-09-15T18:38:10.369Z,101302.05
2018-09-15T18:40:38.583Z,101301.83
2018-09-15T18:43:06.738Z,101306.58
2018-09-15T18:45:34.826Z,101304.10
2018-09-15T18:48:03.020Z,101304.21
2018-09-15T18:50:31.146Z,101311.75
2018-09-15T18:52:59.484Z,101308.68
2018-09-15T18:55:27.553Z,101305.42
2018-09-15T18:57:55.683Z,101319.05
2018-09-15T19:00:23.821Z,101311.97
2018-09-15T19:02:52.128Z,101318.45
2018-09-15T19:05:20.323Z,101321.93
2018-09-15T19:07:48.549Z,101323.42
2018-09-15T19:10:16.820Z,101328.91
2018-09-15T19:12:44.891Z,101330.56
2018-09-15T19:15:12.990Z,101332.08
2018-09-15T19:17:41.095Z,101331.20
2018-09-15T19:20:09.257Z,101332.30
2018-09-15T19:22:37.419Z,101328.22
2018-09-15T19:25:05.676Z,101335.73
2018-09-15T19:27:33.789Z,101336.05
2018-09-15T19:30:01.894Z,101331.22
2018-09-15T19:32:36.978Z,101339.50
2018-09-15T19:35:05.010Z,101338.85
2018-09-15T19:37:33.117Z,101337.39
2018-09-15T19:40:01.179Z,101345.67
2018-09-15T19:42:29.256Z,101349.19
2018-09-15T19:44:58.133Z,101346.79
2018-09-15T19:47:26.218Z,101348.34
2018-09-15T19:49:54.548Z,101346.72
2018-09-15T19:52:22.671Z,101353.45
2018-09-15T19:54:50.753Z,101356.23
2018-09-15T19:57:18.943Z,101360.99
2018-09-15T19:59:47.185Z,101351.86
2018-09-15T20:02:15.259Z,101349.27
2018-09-15T20:04:43.358Z,101358.08
2018-09-15T20:07:11.475Z,101356.89
2018-09-15T20:09:39.541Z,101357.55
2018-09-15T20:12:07.735Z,101356.73
2018-09-15T20:14:36.060Z,101361.37
2018-09-15T20:17:03.154Z,101363.77
2018-09-15T20:19:30.426Z,101355.41
2018-09-15T20:21:57.538Z,101361.20
2018-09-15T20:24:25.646Z,101357.88
2018-09-15T20:26:53.824Z,101362.72
2018-09-15T20:29:21.984Z,101361.98
2018-09-15T20:31:50.133Z,101355.47
2018-09-15T20:34:18.217Z,101362.70
2018-09-15T20:36:46.304Z,101360.56
2018-09-15T20:39:14.401Z,101361.61
2018-09-15T20:41:42.491Z,101365.05
2018-09-15T20:44:10.634Z,101368.25
2018-09-15T20:46:38.933Z,101368.25
2018-09-15T20:49:07.065Z,101364.30
2018-09-15T20:51:35.196Z,101361.52
2018-09-15T20:54:03.367Z,101369.26
2018-09-15T20:56:31.518Z,101365.89
2018-09-15T20:58:59.601Z,101360.91
2018-09-15T21:01:27.689Z,101357.53
2018-09-15T21:03:55.794Z,101361.13
2018-09-15T21:06:23.894Z,101359.31
2018-09-15T21:08:52.006Z,101356.08
2018-09-15T21:11:20.171Z,101362.26
2018-09-15T21:13:48.235Z,101358.82
2018-09-15T21:16:16.345Z,101365.13
2018-09-15T21:18:44.794Z,101366.81
2018-09-15T21:21:12.859Z,101367.70
2018-09-15T21:23:40.986Z,101373.94
2018-09-15T21:26:09.060Z,101379.39
2018-09-15T21:28:37.152Z,101375.64
2018-09-15T21:31:05.350Z,101378.66
2018-09-15T21:33:33.432Z,101376.10
2018-09-15T21:36:01.556Z,101376.75
2018-09-15T21:38:29.695Z,101373.84
2018-09-15T21:40:57.788Z,101379.70
2018-09-15T21:43:25.869Z,101380.67
2018-09-15T21:45:53.956Z,101377.96
2018-09-15T21:48:22.072Z,101387.56
2018-09-15T21:50:50.184Z,101389.02
2018-09-15T21:53:18.812Z,101386.06
2018-09-15T21:55:46.896Z,101373.61
2018-09-15T21:58:14.938Z,101383.63
2018-09-15T22:00:43.016Z,101383.69
2018-09-15T22:03:11.115Z,101385.94
2018-09-15T22:05:39.189Z,101383.80
2018-09-15T22:08:07.291Z,101379.09
2018-09-15T22:10:35.358Z,101379.52
2018-09-15T22:13:03.453Z,101386.72
2018-09-15T22:15:31.561Z,101388.63
2018-09-15T22:17:59.672Z,101389.83
2018-09-15T22:20:28.129Z,101394.71
2018-09-15T22:22:56.187Z,101394.03
2018-09-15T22:25:24.276Z,101402.27
2018-09-15T22:27:52.342Z,101404.03
2018-09-15T22:30:20.425Z,101403.13
2018-09-15T22:32:48.514Z,101410.58
2018-09-15T22:35:16.588Z,101403.70
2018-09-15T22:37:44.720Z,101407.20
2018-09-15T22:40:12.838Z,101403.17
2018-09-15T22:42:40.956Z,101400.30
2018-09-15T22:45:09.060Z,101400.80
2018-09-15T22:47:37.132Z,101397.95
2018-09-15T22:50:05.637Z,101397.98
2018-09-15T22:52:33.808Z,101405.64
2018-09-15T22:55:01.886Z,101399.78
2018-09-15T22:57:30.012Z,101390.53
2018-09-15T22:59:58.124Z,101392.63
2018-09-15T23:02:26.227Z,101394.28
2018-09-15T23:04:54.295Z,101394.17
2018-09-15T23:07:22.420Z,101389.33
2018-09-15T23:09:50.506Z,101382.16
2018-09-15T23:12:18.588Z,101394.20
2018-09-15T23:14:46.714Z,101393.52
2018-09-15T23:17:14.829Z,101395.03
2018-09-15T23:19:42.900Z,101392.73
2018-09-15T23:22:10.964Z,101384.91
2018-09-15T23:24:39.024Z,101387.81
2018-09-15T23:27:07.405Z,101381.91
2018-09-15T23:29:35.524Z,101390.94
2018-09-15T23:32:03.740Z,101383.89
2018-09-15T23:34:31.948Z,101385.41
2018-09-15T23:37:00.037Z,101383.58
2018-09-15T23:39:28.112Z,101375.39
2018-09-15T23:41:56.184Z,101380.69
2018-09-15T23:44:24.256Z,101376.09
2018-09-15T23:46:52.376Z,101377.81
2018-09-15T23:49:20.467Z,101382.33
2018-09-15T23:51:48.541Z,101379.90
2018-09-15T23:54:16.630Z,101373.33
2018-09-15T23:56:44.696Z,101372.85
2018-09-15T23:59:12.795Z,101370.08
